sensor_id;sensor_type;location;lat;lon;timestamp;P1;durP1;ratioP1;P2;durP2;ratioP2
32790;SDS011;19143;59.322;14.502;2023-05-24T00:00:59;6.40;;;5.60;;
32790;SDS011;19143;59.322;14.502;2023-05-24T00:03:26;5.87;;;5.33;;
32790;SDS011;19143;59.322;14.502;2023-05-24T00:05:54;5.73;;;5.20;;
32790;SDS011;19143;59.322;14.502;2023-05-24T00:08:21;7.03;;;5.67;;
32790;SDS011;19143;59.322;14.502;2023-05-24T00:10:47;5.83;;;5.33;;
32790;SDS011;19143;59.322;14.502;2023-05-24T00:13:15;6.00;;;5.40;;
32790;SDS011;19143;59.322;14.502;2023-05-24T00:15:42;6.20;;;5.60;;
32790;SDS011;19143;59.322;14.502;2023-05-24T00:18:09;5.83;;;5.23;;
32790;SDS011;19143;59.322;14.502;2023-05-24T00:20:35;6.47;;;5.70;;
32790;SDS011;19143;59.322;14.502;2023-05-24T00:23:02;10.73;;;5.90;;
32790;SDS011;19143;59.322;14.502;2023-05-24T00:25:28;9.33;;;5.53;;
32790;SDS011;19143;59.322;14.502;2023-05-24T00:27:55;6.90;;;6.20;;
32790;SDS011;19143;59.322;14.502;2023-05-24T00:30:23;11.73;;;6.17;;
32790;SDS011;19143;59.322;14.502;2023-05-24T00:32:49;6.23;;;5.70;;
32790;SDS011;19143;59.322;14.502;2023-05-24T00:35:16;9.77;;;5.87;;
32790;SDS011;19143;59.322;14.502;2023-05-24T00:37:43;6.33;;;5.60;;
32790;SDS011;19143;59.322;14.502;2023-05-24T00:40:10;8.97;;;6.17;;
32790;SDS011;19143;59.322;14.502;2023-05-24T00:42:37;9.73;;;5.93;;
32790;SDS011;19143;59.322;14.502;2023-05-24T00:45:04;8.03;;;6.47;;
32790;SDS011;19143;59.322;14.502;2023-05-24T00:47:32;6.23;;;5.63;;
32790;SDS011;19143;59.322;14.502;2023-05-24T00:49:58;6.70;;;5.47;;
32790;SDS011;19143;59.322;14.502;2023-05-24T00:52:25;6.37;;;5.77;;
32790;SDS011;19143;59.322;14.502;2023-05-24T00:54:52;6.23;;;5.63;;
32790;SDS011;19143;59.322;14.502;2023-05-24T00:57:19;7.10;;;6.00;;
32790;SDS011;19143;59.322;14.502;2023-05-24T00:59:45;6.30;;;5.70;;
32790;SDS011;19143;59.322;14.502;2023-05-24T01:02:12;6.70;;;5.87;;
32790;SDS011;19143;59.322;14.502;2023-05-24T01:04:40;6.33;;;5.73;;
32790;SDS011;19143;59.322;14.502;2023-05-24T01:07:09;7.07;;;6.20;;
32790;SDS011;19143;59.322;14.502;2023-05-24T01:09:41;6.20;;;5.60;;
32790;SDS011;19143;59.322;14.502;2023-05-24T01:12:13;6.53;;;5.93;;
32790;SDS011;19143;59.322;14.502;2023-05-24T01:14:43;14.87;;;6.13;;
32790;SDS011;19143;59.322;14.502;2023-05-24T01:17:13;6.70;;;5.83;;
32790;SDS011;19143;59.322;14.502;2023-05-24T01:19:50;6.93;;;6.13;;
32790;SDS011;19143;59.322;14.502;2023-05-24T01:22:22;6.07;;;5.50;;
32790;SDS011;19143;59.322;14.502;2023-05-24T01:24:52;7.17;;;6.30;;
32790;SDS011;19143;59.322;14.502;2023-05-24T01:27:21;7.73;;;5.93;;
32790;SDS011;19143;59.322;14.502;2023-05-24T01:29:49;6.93;;;5.93;;
32790;SDS011;19143;59.322;14.502;2023-05-24T01:32:17;11.63;;;6.20;;
32790;SDS011;19143;59.322;14.502;2023-05-24T01:34:44;6.97;;;6.27;;
32790;SDS011;19143;59.322;14.502;2023-05-24T01:37:11;6.50;;;5.90;;
32790;SDS011;19143;59.322;14.502;2023-05-24T01:39:37;6.50;;;5.90;;
32790;SDS011;19143;59.322;14.502;2023-05-24T01:42:06;8.03;;;5.60;;
32790;SDS011;19143;59.322;14.502;2023-05-24T01:44:36;7.37;;;5.87;;
32790;SDS011;19143;59.322;14.502;2023-05-24T01:49:49;7.27;;;6.27;;
32790;SDS011;19143;59.322;14.502;2023-05-24T01:52:16;11.90;;;5.63;;
32790;SDS011;19143;59.322;14.502;2023-05-24T01:54:44;11.40;;;6.10;;
32790;SDS011;19143;59.322;14.502;2023-05-24T01:57:14;7.40;;;5.80;;
32790;SDS011;19143;59.322;14.502;2023-05-24T01:59:43;6.70;;;6.10;;
32790;SDS011;19143;59.322;14.502;2023-05-24T02:02:10;10.60;;;6.13;;
32790;SDS011;19143;59.322;14.502;2023-05-24T02:04:44;7.60;;;6.40;;
32790;SDS011;19143;59.322;14.502;2023-05-24T02:07:11;6.37;;;5.60;;
32790;SDS011;19143;59.322;14.502;2023-05-24T02:09:37;11.70;;;6.23;;
32790;SDS011;19143;59.322;14.502;2023-05-24T02:12:04;8.77;;;6.03;;
32790;SDS011;19143;59.322;14.502;2023-05-24T02:14:31;6.17;;;5.60;;
32790;SDS011;19143;59.322;14.502;2023-05-24T02:16:59;6.80;;;6.10;;
32790;SDS011;19143;59.322;14.502;2023-05-24T02:19:26;7.90;;;6.63;;
32790;SDS011;19143;59.322;14.502;2023-05-24T02:21:53;8.47;;;6.73;;
32790;SDS011;19143;59.322;14.502;2023-05-24T02:24:20;9.63;;;6.50;;
32790;SDS011;19143;59.322;14.502;2023-05-24T02:26:46;7.70;;;6.83;;
32790;SDS011;19143;59.322;14.502;2023-05-24T02:29:13;10.07;;;7.30;;
32790;SDS011;19143;59.322;14.502;2023-05-24T02:31:40;17.60;;;8.07;;
32790;SDS011;19143;59.322;14.502;2023-05-24T02:34:08;8.23;;;7.30;;
32790;SDS011;19143;59.322;14.502;2023-05-24T02:36:34;8.37;;;7.43;;
32790;SDS011;19143;59.322;14.502;2023-05-24T02:39:01;10.27;;;7.90;;
32790;SDS011;19143;59.322;14.502;2023-05-24T02:41:28;13.73;;;8.97;;
32790;SDS011;19143;59.322;14.502;2023-05-24T02:43:54;12.03;;;9.47;;
32790;SDS011;19143;59.322;14.502;2023-05-24T02:46:21;17.77;;;9.20;;
32790;SDS011;19143;59.322;14.502;2023-05-24T02:48:47;12.27;;;9.20;;
32790;SDS011;19143;59.322;14.502;2023-05-24T02:51:16;11.07;;;9.07;;
32790;SDS011;19143;59.322;14.502;2023-05-24T02:53:42;11.73;;;9.90;;
32790;SDS011;19143;59.322;14.502;2023-05-24T02:56:09;12.17;;;9.53;;
32790;SDS011;19143;59.322;14.502;2023-05-24T02:58:37;12.47;;;10.00;;
32790;SDS011;19143;59.322;14.502;2023-05-24T03:01:05;14.27;;;10.37;;
32790;SDS011;19143;59.322;14.502;2023-05-24T03:03:32;13.30;;;10.50;;
32790;SDS011;19143;59.322;14.502;2023-05-24T03:05:59;14.17;;;9.83;;
32790;SDS011;19143;59.322;14.502;2023-05-24T03:08:27;12.57;;;9.77;;
32790;SDS011;19143;59.322;14.502;2023-05-24T03:10:53;13.40;;;10.63;;
32790;SDS011;19143;59.322;14.502;2023-05-24T03:13:20;17.87;;;10.27;;
32790;SDS011;19143;59.322;14.502;2023-05-24T03:15:46;12.17;;;10.23;;
32790;SDS011;19143;59.322;14.502;2023-05-24T03:18:13;11.97;;;10.43;;
32790;SDS011;19143;59.322;14.502;2023-05-24T03:20:39;13.20;;;10.83;;
32790;SDS011;19143;59.322;14.502;2023-05-24T03:23:06;11.90;;;9.77;;
32790;SDS011;19143;59.322;14.502;2023-05-24T03:25:36;14.00;;;9.20;;
32790;SDS011;19143;59.322;14.502;2023-05-24T03:28:02;13.17;;;9.10;;
32790;SDS011;19143;59.322;14.502;2023-05-24T03:30:29;13.63;;;9.57;;
32790;SDS011;19143;59.322;14.502;2023-05-24T03:32:56;14.13;;;9.50;;
32790;SDS011;19143;59.322;14.502;2023-05-24T03:35:22;13.80;;;9.00;;
32790;SDS011;19143;59.322;14.502;2023-05-24T03:37:49;20.43;;;9.57;;
32790;SDS011;19143;59.322;14.502;2023-05-24T03:40:15;17.07;;;8.40;;
32790;SDS011;19143;59.322;14.502;2023-05-24T03:42:44;9.87;;;7.43;;
32790;SDS011;19143;59.322;14.502;2023-05-24T03:45:10;12.77;;;8.10;;
32790;SDS011;19143;59.322;14.502;2023-05-24T03:47:37;10.60;;;7.80;;
32790;SDS011;19143;59.322;14.502;2023-05-24T03:50:04;13.30;;;7.57;;
32790;SDS011;19143;59.322;14.502;2023-05-24T03:52:31;9.97;;;7.57;;
32790;SDS011;19143;59.322;14.502;2023-05-24T03:54:57;8.00;;;7.07;;
32790;SDS011;19143;59.322;14.502;2023-05-24T03:57:24;10.83;;;7.87;;
32790;SDS011;19143;59.322;14.502;2023-05-24T03:59:52;9.07;;;7.20;;
32790;SDS011;19143;59.322;14.502;2023-05-24T04:02:18;9.07;;;7.67;;
32790;SDS011;19143;59.322;14.502;2023-05-24T04:04:45;8.67;;;7.07;;
32790;SDS011;19143;59.322;14.502;2023-05-24T04:07:11;10.17;;;7.37;;
32790;SDS011;19143;59.322;14.502;2023-05-24T04:09:39;9.13;;;7.57;;
32790;SDS011;19143;59.322;14.502;2023-05-24T04:12:06;8.13;;;7.33;;
32790;SDS011;19143;59.322;14.502;2023-05-24T04:14:32;10.77;;;7.57;;
32790;SDS011;19143;59.322;14.502;2023-05-24T04:17:00;11.20;;;8.00;;
32790;SDS011;19143;59.322;14.502;2023-05-24T04:19:28;9.23;;;7.23;;
32790;SDS011;19143;59.322;14.502;2023-05-24T04:21:55;8.70;;;7.23;;
32790;SDS011;19143;59.322;14.502;2023-05-24T04:24:23;8.60;;;7.53;;
32790;SDS011;19143;59.322;14.502;2023-05-24T04:26:50;8.90;;;7.00;;
32790;SDS011;19143;59.322;14.502;2023-05-24T04:29:18;11.13;;;6.90;;
32790;SDS011;19143;59.322;14.502;2023-05-24T04:31:44;8.03;;;7.23;;
32790;SDS011;19143;59.322;14.502;2023-05-24T04:34:14;8.03;;;7.33;;
32790;SDS011;19143;59.322;14.502;2023-05-24T04:36:41;8.40;;;7.53;;
32790;SDS011;19143;59.322;14.502;2023-05-24T04:39:07;14.23;;;7.40;;
32790;SDS011;19143;59.322;14.502;2023-05-24T04:41:34;12.63;;;6.90;;
32790;SDS011;19143;59.322;14.502;2023-05-24T04:44:08;7.53;;;6.73;;
32790;SDS011;19143;59.322;14.502;2023-05-24T04:46:41;8.83;;;6.80;;
32790;SDS011;19143;59.322;14.502;2023-05-24T04:49:07;8.07;;;6.37;;
32790;SDS011;19143;59.322;14.502;2023-05-24T04:51:35;7.70;;;7.00;;
32790;SDS011;19143;59.322;14.502;2023-05-24T04:54:02;13.23;;;6.83;;
32790;SDS011;19143;59.322;14.502;2023-05-24T04:56:32;8.13;;;7.10;;
32790;SDS011;19143;59.322;14.502;2023-05-24T04:58:59;10.13;;;6.70;;
32790;SDS011;19143;59.322;14.502;2023-05-24T05:01:26;10.53;;;7.10;;
32790;SDS011;19143;59.322;14.502;2023-05-24T05:03:52;9.53;;;6.70;;
32790;SDS011;19143;59.322;14.502;2023-05-24T05:06:19;14.07;;;7.43;;
32790;SDS011;19143;59.322;14.502;2023-05-24T05:08:47;8.93;;;7.00;;
32790;SDS011;19143;59.322;14.502;2023-05-24T05:11:14;8.33;;;6.73;;
32790;SDS011;19143;59.322;14.502;2023-05-24T05:13:41;11.20;;;6.63;;
32790;SDS011;19143;59.322;14.502;2023-05-24T05:16:07;10.40;;;6.50;;
32790;SDS011;19143;59.322;14.502;2023-05-24T05:18:34;7.10;;;6.50;;
32790;SDS011;19143;59.322;14.502;2023-05-24T05:21:01;7.27;;;6.57;;
32790;SDS011;19143;59.322;14.502;2023-05-24T05:23:28;7.40;;;6.80;;
32790;SDS011;19143;59.322;14.502;2023-05-24T05:25:57;10.10;;;6.73;;
32790;SDS011;19143;59.322;14.502;2023-05-24T05:28:23;7.33;;;6.60;;
32790;SDS011;19143;59.322;14.502;2023-05-24T05:30:50;7.40;;;6.50;;
32790;SDS011;19143;59.322;14.502;2023-05-24T05:33:16;9.47;;;6.73;;
32790;SDS011;19143;59.322;14.502;2023-05-24T05:35:43;8.47;;;6.53;;
32790;SDS011;19143;59.322;14.502;2023-05-24T05:38:10;9.27;;;6.60;;
32790;SDS011;19143;59.322;14.502;2023-05-24T05:40:36;9.60;;;6.67;;
32790;SDS011;19143;59.322;14.502;2023-05-24T05:43:05;7.57;;;6.43;;
32790;SDS011;19143;59.322;14.502;2023-05-24T05:45:32;15.20;;;7.40;;
32790;SDS011;19143;59.322;14.502;2023-05-24T05:47:59;7.03;;;6.37;;
32790;SDS011;19143;59.322;14.502;2023-05-24T05:50:26;9.87;;;7.23;;
32790;SDS011;19143;59.322;14.502;2023-05-24T05:52:52;10.93;;;7.83;;
32790;SDS011;19143;59.322;14.502;2023-05-24T05:55:19;8.77;;;7.90;;
32790;SDS011;19143;59.322;14.502;2023-05-24T05:57:46;10.03;;;7.83;;
32790;SDS011;19143;59.322;14.502;2023-05-24T06:00:14;14.13;;;8.77;;
32790;SDS011;19143;59.322;14.502;2023-05-24T06:02:41;17.07;;;8.70;;
32790;SDS011;19143;59.322;14.502;2023-05-24T06:05:09;10.20;;;8.90;;
32790;SDS011;19143;59.322;14.502;2023-05-24T06:07:51;10.73;;;9.63;;
32790;SDS011;19143;59.322;14.502;2023-05-24T06:10:18;12.33;;;9.90;;
32790;SDS011;19143;59.322;14.502;2023-05-24T06:12:45;11.77;;;8.50;;
32790;SDS011;19143;59.322;14.502;2023-05-24T06:15:12;12.80;;;8.13;;
32790;SDS011;19143;59.322;14.502;2023-05-24T06:17:39;13.47;;;9.17;;
32790;SDS011;19143;59.322;14.502;2023-05-24T06:20:08;9.00;;;8.03;;
32790;SDS011;19143;59.322;14.502;2023-05-24T06:22:37;11.20;;;8.90;;
32790;SDS011;19143;59.322;14.502;2023-05-24T06:25:07;11.20;;;8.70;;
32790;SDS011;19143;59.322;14.502;2023-05-24T06:27:33;8.60;;;6.23;;
32790;SDS011;19143;59.322;14.502;2023-05-24T06:30:00;6.07;;;5.57;;
32790;SDS011;19143;59.322;14.502;2023-05-24T06:32:27;4.93;;;4.53;;
32790;SDS011;19143;59.322;14.502;2023-05-24T06:34:55;5.87;;;4.17;;
32790;SDS011;19143;59.322;14.502;2023-05-24T06:37:22;4.80;;;4.33;;
32790;SDS011;19143;59.322;14.502;2023-05-24T06:39:49;4.40;;;4.10;;
32790;SDS011;19143;59.322;14.502;2023-05-24T06:42:16;3.80;;;3.60;;
32790;SDS011;19143;59.322;14.502;2023-05-24T06:44:43;5.70;;;4.37;;
32790;SDS011;19143;59.322;14.502;2023-05-24T06:47:09;10.83;;;4.03;;
32790;SDS011;19143;59.322;14.502;2023-05-24T06:49:36;8.00;;;4.50;;
32790;SDS011;19143;59.322;14.502;2023-05-24T06:52:04;4.40;;;4.00;;
32790;SDS011;19143;59.322;14.502;2023-05-24T06:54:32;4.83;;;4.23;;
32790;SDS011;19143;59.322;14.502;2023-05-24T06:56:59;4.97;;;4.43;;
32790;SDS011;19143;59.322;14.502;2023-05-24T06:59:26;14.37;;;4.80;;
32790;SDS011;19143;59.322;14.502;2023-05-24T07:01:53;5.60;;;4.47;;
32790;SDS011;19143;59.322;14.502;2023-05-24T07:04:21;7.67;;;4.33;;
32790;SDS011;19143;59.322;14.502;2023-05-24T07:06:48;7.47;;;4.37;;
32790;SDS011;19143;59.322;14.502;2023-05-24T07:09:16;5.67;;;4.13;;
32790;SDS011;19143;59.322;14.502;2023-05-24T07:11:42;6.73;;;4.30;;
32790;SDS011;19143;59.322;14.502;2023-05-24T07:14:09;15.50;;;4.47;;
32790;SDS011;19143;59.322;14.502;2023-05-24T07:16:36;4.80;;;4.30;;
32790;SDS011;19143;59.322;14.502;2023-05-24T07:19:02;5.77;;;5.17;;
32790;SDS011;19143;59.322;14.502;2023-05-24T07:21:29;4.30;;;4.10;;
32790;SDS011;19143;59.322;14.502;2023-05-24T07:23:55;6.07;;;4.23;;
32790;SDS011;19143;59.322;14.502;2023-05-24T07:26:24;6.73;;;4.30;;
32790;SDS011;19143;59.322;14.502;2023-05-24T07:28:50;4.47;;;4.07;;
32790;SDS011;19143;59.322;14.502;2023-05-24T07:31:17;5.90;;;4.47;;
32790;SDS011;19143;59.322;14.502;2023-05-24T07:33:44;4.17;;;3.97;;
32790;SDS011;19143;59.322;14.502;2023-05-24T07:36:10;5.83;;;3.30;;
32790;SDS011;19143;59.322;14.502;2023-05-24T07:38:37;7.70;;;3.20;;
32790;SDS011;19143;59.322;14.502;2023-05-24T07:41:04;4.80;;;3.53;;
32790;SDS011;19143;59.322;14.502;2023-05-24T07:43:33;6.53;;;3.73;;
32790;SDS011;19143;59.322;14.502;2023-05-24T07:46:01;3.87;;;3.30;;
32790;SDS011;19143;59.322;14.502;2023-05-24T07:48:28;36.60;;;5.93;;
32790;SDS011;19143;59.322;14.502;2023-05-24T07:50:54;7.17;;;3.40;;
32790;SDS011;19143;59.322;14.502;2023-05-24T07:53:21;6.87;;;3.50;;
32790;SDS011;19143;59.322;14.502;2023-05-24T07:55:48;5.37;;;4.30;;
32790;SDS011;19143;59.322;14.502;2023-05-24T07:58:14;3.97;;;3.67;;
32790;SDS011;19143;59.322;14.502;2023-05-24T08:00:42;4.03;;;3.50;;
32790;SDS011;19143;59.322;14.502;2023-05-24T08:03:09;7.73;;;3.40;;
32790;SDS011;19143;59.322;14.502;2023-05-24T08:05:38;6.00;;;3.70;;
32790;SDS011;19143;59.322;14.502;2023-05-24T08:08:05;9.90;;;4.30;;
32790;SDS011;19143;59.322;14.502;2023-05-24T08:10:31;5.37;;;4.20;;
32790;SDS011;19143;59.322;14.502;2023-05-24T08:12:58;6.33;;;3.80;;
32790;SDS011;19143;59.322;14.502;2023-05-24T08:15:25;3.90;;;3.60;;
32790;SDS011;19143;59.322;14.502;2023-05-24T08:17:53;4.23;;;3.83;;
32790;SDS011;19143;59.322;14.502;2023-05-24T08:20:20;13.00;;;4.60;;
32790;SDS011;19143;59.322;14.502;2023-05-24T08:22:47;4.30;;;4.00;;
32790;SDS011;19143;59.322;14.502;2023-05-24T08:25:14;6.27;;;4.00;;
32790;SDS011;19143;59.322;14.502;2023-05-24T08:27:40;5.50;;;3.90;;
32790;SDS011;19143;59.322;14.502;2023-05-24T08:30:07;7.90;;;4.10;;
32790;SDS011;19143;59.322;14.502;2023-05-24T08:32:35;3.80;;;3.60;;
32790;SDS011;19143;59.322;14.502;2023-05-24T08:35:04;7.20;;;3.63;;
32790;SDS011;19143;59.322;14.502;2023-05-24T08:37:30;3.70;;;3.40;;
32790;SDS011;19143;59.322;14.502;2023-05-24T08:39:57;7.17;;;3.97;;
32790;SDS011;19143;59.322;14.502;2023-05-24T08:42:24;4.77;;;3.63;;
32790;SDS011;19143;59.322;14.502;2023-05-24T08:44:51;5.10;;;3.53;;
32790;SDS011;19143;59.322;14.502;2023-05-24T08:47:19;3.33;;;3.13;;
32790;SDS011;19143;59.322;14.502;2023-05-24T08:49:46;3.87;;;3.33;;
32790;SDS011;19143;59.322;14.502;2023-05-24T08:52:14;3.73;;;3.43;;
32790;SDS011;19143;59.322;14.502;2023-05-24T08:54:41;4.00;;;3.40;;
32790;SDS011;19143;59.322;14.502;2023-05-24T08:57:08;5.47;;;3.30;;
32790;SDS011;19143;59.322;14.502;2023-05-24T08:59:36;3.20;;;3.00;;
32790;SDS011;19143;59.322;14.502;2023-05-24T09:02:07;3.83;;;3.50;;
32790;SDS011;19143;59.322;14.502;2023-05-24T09:04:34;3.70;;;3.43;;
32790;SDS011;19143;59.322;14.502;2023-05-24T09:07:01;4.47;;;3.37;;
32790;SDS011;19143;59.322;14.502;2023-05-24T09:09:30;6.27;;;3.77;;
32790;SDS011;19143;59.322;14.502;2023-05-24T09:11:58;4.37;;;3.23;;
32790;SDS011;19143;59.322;14.502;2023-05-24T09:14:27;3.40;;;2.97;;
32790;SDS011;19143;59.322;14.502;2023-05-24T09:16:54;4.57;;;3.17;;
32790;SDS011;19143;59.322;14.502;2023-05-24T09:19:21;3.30;;;3.20;;
32790;SDS011;19143;59.322;14.502;2023-05-24T09:21:48;3.50;;;3.30;;
32790;SDS011;19143;59.322;14.502;2023-05-24T09:24:15;3.57;;;3.37;;
32790;SDS011;19143;59.322;14.502;2023-05-24T09:26:43;3.33;;;3.07;;
32790;SDS011;19143;59.322;14.502;2023-05-24T09:29:10;3.33;;;3.23;;
32790;SDS011;19143;59.322;14.502;2023-05-24T09:31:37;6.30;;;3.30;;
32790;SDS011;19143;59.322;14.502;2023-05-24T09:34:08;8.23;;;3.40;;
32790;SDS011;19143;59.322;14.502;2023-05-24T09:36:35;3.93;;;3.73;;
32790;SDS011;19143;59.322;14.502;2023-05-24T09:39:05;3.70;;;3.17;;
32790;SDS011;19143;59.322;14.502;2023-05-24T09:41:33;4.33;;;3.60;;
32790;SDS011;19143;59.322;14.502;2023-05-24T09:44:01;3.83;;;3.53;;
32790;SDS011;19143;59.322;14.502;2023-05-24T09:46:29;4.10;;;3.73;;
32790;SDS011;19143;59.322;14.502;2023-05-24T09:49:02;3.67;;;3.40;;
32790;SDS011;19143;59.322;14.502;2023-05-24T09:51:30;3.67;;;3.47;;
32790;SDS011;19143;59.322;14.502;2023-05-24T09:53:57;3.73;;;3.40;;
32790;SDS011;19143;59.322;14.502;2023-05-24T09:56:25;4.00;;;3.70;;
32790;SDS011;19143;59.322;14.502;2023-05-24T09:58:52;4.70;;;3.53;;
32790;SDS011;19143;59.322;14.502;2023-05-24T10:01:22;4.20;;;3.80;;
32790;SDS011;19143;59.322;14.502;2023-05-24T10:03:52;3.60;;;3.30;;
32790;SDS011;19143;59.322;14.502;2023-05-24T10:06:19;3.83;;;3.63;;
32790;SDS011;19143;59.322;14.502;2023-05-24T10:08:46;4.33;;;4.03;;
32790;SDS011;19143;59.322;14.502;2023-05-24T10:11:13;4.53;;;4.07;;
32790;SDS011;19143;59.322;14.502;2023-05-24T10:13:40;4.23;;;3.83;;
32790;SDS011;19143;59.322;14.502;2023-05-24T10:16:07;5.23;;;4.07;;
32790;SDS011;19143;59.322;14.502;2023-05-24T10:18:35;12.17;;;3.60;;
32790;SDS011;19143;59.322;14.502;2023-05-24T10:21:03;3.60;;;3.40;;
32790;SDS011;19143;59.322;14.502;2023-05-24T10:23:31;5.90;;;3.60;;
32790;SDS011;19143;59.322;14.502;2023-05-24T10:26:01;11.93;;;3.70;;
32790;SDS011;19143;59.322;14.502;2023-05-24T10:28:30;7.23;;;3.73;;
32790;SDS011;19143;59.322;14.502;2023-05-24T10:31:00;6.00;;;3.40;;
32790;SDS011;19143;59.322;14.502;2023-05-24T10:33:28;4.20;;;3.83;;
32790;SDS011;19143;59.322;14.502;2023-05-24T10:35:57;7.77;;;3.70;;
32790;SDS011;19143;59.322;14.502;2023-05-24T10:38:24;8.97;;;3.83;;
32790;SDS011;19143;59.322;14.502;2023-05-24T10:40:50;6.90;;;3.50;;
32790;SDS011;19143;59.322;14.502;2023-05-24T10:43:17;4.17;;;3.73;;
32790;SDS011;19143;59.322;14.502;2023-05-24T10:45:47;4.73;;;3.63;;
32790;SDS011;19143;59.322;14.502;2023-05-24T10:50:56;3.83;;;3.40;;
32790;SDS011;19143;59.322;14.502;2023-05-24T10:53:26;7.50;;;3.60;;
32790;SDS011;19143;59.322;14.502;2023-05-24T10:55:53;3.50;;;3.33;;
32790;SDS011;19143;59.322;14.502;2023-05-24T10:58:21;12.90;;;4.13;;
32790;SDS011;19143;59.322;14.502;2023-05-24T11:00:50;11.83;;;4.17;;
32790;SDS011;19143;59.322;14.502;2023-05-24T11:03:17;3.70;;;3.50;;
32790;SDS011;19143;59.322;14.502;2023-05-24T11:05:48;3.73;;;3.40;;
32790;SDS011;19143;59.322;14.502;2023-05-24T11:08:21;3.63;;;3.43;;
32790;SDS011;19143;59.322;14.502;2023-05-24T11:10:48;13.40;;;4.00;;
32790;SDS011;19143;59.322;14.502;2023-05-24T11:13:15;8.00;;;3.40;;
32790;SDS011;19143;59.322;14.502;2023-05-24T11:15:51;7.87;;;3.70;;
32790;SDS011;19143;59.322;14.502;2023-05-24T11:18:20;4.90;;;3.50;;
32790;SDS011;19143;59.322;14.502;2023-05-24T11:20:47;3.97;;;3.70;;
32790;SDS011;19143;59.322;14.502;2023-05-24T11:23:15;14.93;;;4.00;;
32790;SDS011;19143;59.322;14.502;2023-05-24T11:25:43;3.77;;;3.40;;
32790;SDS011;19143;59.322;14.502;2023-05-24T11:28:10;3.77;;;3.47;;
32790;SDS011;19143;59.322;14.502;2023-05-24T11:30:40;6.20;;;3.47;;
32790;SDS011;19143;59.322;14.502;2023-05-24T11:33:18;6.30;;;3.40;;
32790;SDS011;19143;59.322;14.502;2023-05-24T11:35:46;3.70;;;3.40;;
32790;SDS011;19143;59.322;14.502;2023-05-24T11:38:14;3.77;;;3.50;;
32790;SDS011;19143;59.322;14.502;2023-05-24T11:40:43;4.57;;;3.33;;
32790;SDS011;19143;59.322;14.502;2023-05-24T11:43:11;7.33;;;3.33;;
32790;SDS011;19143;59.322;14.502;2023-05-24T11:45:39;4.37;;;3.33;;
32790;SDS011;19143;59.322;14.502;2023-05-24T11:48:07;5.30;;;3.07;;
32790;SDS011;19143;59.322;14.502;2023-05-24T11:50:36;18.03;;;3.60;;
32790;SDS011;19143;59.322;14.502;2023-05-24T11:53:03;3.40;;;3.10;;
32790;SDS011;19143;59.322;14.502;2023-05-24T11:55:30;8.97;;;4.13;;
32790;SDS011;19143;59.322;14.502;2023-05-24T11:57:58;5.63;;;3.17;;
32790;SDS011;19143;59.322;14.502;2023-05-24T12:00:27;7.10;;;3.67;;
32790;SDS011;19143;59.322;14.502;2023-05-24T12:02:55;9.63;;;3.20;;
32790;SDS011;19143;59.322;14.502;2023-05-24T12:05:25;8.27;;;3.53;;
32790;SDS011;19143;59.322;14.502;2023-05-24T12:08:00;3.77;;;3.33;;
32790;SDS011;19143;59.322;14.502;2023-05-24T12:10:28;6.10;;;3.50;;
32790;SDS011;19143;59.322;14.502;2023-05-24T12:12:55;8.03;;;3.23;;
32790;SDS011;19143;59.322;14.502;2023-05-24T12:15:24;4.90;;;3.40;;
32790;SDS011;19143;59.322;14.502;2023-05-24T12:17:50;4.07;;;3.30;;
32790;SDS011;19143;59.322;14.502;2023-05-24T12:20:17;15.93;;;3.50;;
32790;SDS011;19143;59.322;14.502;2023-05-24T12:22:47;4.67;;;3.27;;
32790;SDS011;19143;59.322;14.502;2023-05-24T12:25:16;9.27;;;3.90;;
32790;SDS011;19143;59.322;14.502;2023-05-24T12:27:44;4.70;;;3.30;;
32790;SDS011;19143;59.322;14.502;2023-05-24T12:30:14;34.83;;;4.70;;
32790;SDS011;19143;59.322;14.502;2023-05-24T12:32:46;4.43;;;3.77;;
32790;SDS011;19143;59.322;14.502;2023-05-24T12:35:13;4.60;;;3.60;;
32790;SDS011;19143;59.322;14.502;2023-05-24T12:37:40;10.73;;;3.53;;
32790;SDS011;19143;59.322;14.502;2023-05-24T12:40:13;4.97;;;3.57;;
32790;SDS011;19143;59.322;14.502;2023-05-24T12:42:42;6.13;;;3.77;;
32790;SDS011;19143;59.322;14.502;2023-05-24T12:45:15;8.07;;;3.97;;
32790;SDS011;19143;59.322;14.502;2023-05-24T12:47:49;6.67;;;3.57;;
32790;SDS011;19143;59.322;14.502;2023-05-24T12:50:16;3.73;;;3.20;;
32790;SDS011;19143;59.322;14.502;2023-05-24T12:52:43;6.23;;;3.20;;
32790;SDS011;19143;59.322;14.502;2023-05-24T12:55:11;7.27;;;3.33;;
32790;SDS011;19143;59.322;14.502;2023-05-24T12:57:37;9.33;;;3.40;;
32790;SDS011;19143;59.322;14.502;2023-05-24T13:00:05;5.03;;;3.80;;
32790;SDS011;19143;59.322;14.502;2023-05-24T13:02:32;13.63;;;3.90;;
32790;SDS011;19143;59.322;14.502;2023-05-24T13:05:00;5.57;;;3.30;;
32790;SDS011;19143;59.322;14.502;2023-05-24T13:07:28;6.43;;;3.33;;
32790;SDS011;19143;59.322;14.502;2023-05-24T13:09:55;11.70;;;3.43;;
32790;SDS011;19143;59.322;14.502;2023-05-24T13:12:22;5.67;;;3.57;;
32790;SDS011;19143;59.322;14.502;2023-05-24T13:14:49;5.47;;;3.13;;
32790;SDS011;19143;59.322;14.502;2023-05-24T13:17:17;4.50;;;3.40;;
32790;SDS011;19143;59.322;14.502;2023-05-24T13:19:44;5.10;;;3.30;;
32790;SDS011;19143;59.322;14.502;2023-05-24T13:22:13;8.63;;;3.50;;
32790;SDS011;19143;59.322;14.502;2023-05-24T13:24:39;6.10;;;3.47;;
32790;SDS011;19143;59.322;14.502;2023-05-24T13:27:07;10.17;;;3.33;;
32790;SDS011;19143;59.322;14.502;2023-05-24T13:29:34;3.83;;;3.10;;
32790;SDS011;19143;59.322;14.502;2023-05-24T13:32:00;8.97;;;3.47;;
32790;SDS011;19143;59.322;14.502;2023-05-24T13:34:28;3.77;;;3.30;;
32790;SDS011;19143;59.322;14.502;2023-05-24T13:36:56;9.83;;;3.70;;
32790;SDS011;19143;59.322;14.502;2023-05-24T13:39:25;10.43;;;3.70;;
32790;SDS011;19143;59.322;14.502;2023-05-24T13:41:52;14.13;;;3.83;;
32790;SDS011;19143;59.322;14.502;2023-05-24T13:44:19;8.33;;;3.60;;
32790;SDS011;19143;59.322;14.502;2023-05-24T13:46:46;3.53;;;3.33;;
32790;SDS011;19143;59.322;14.502;2023-05-24T13:49:12;3.37;;;3.07;;
32790;SDS011;19143;59.322;14.502;2023-05-24T13:51:41;5.33;;;3.50;;
32790;SDS011;19143;59.322;14.502;2023-05-24T13:54:08;5.20;;;3.80;;
32790;SDS011;19143;59.322;14.502;2023-05-24T13:56:37;4.20;;;3.50;;
32790;SDS011;19143;59.322;14.502;2023-05-24T13:59:04;14.27;;;3.67;;
32790;SDS011;19143;59.322;14.502;2023-05-24T14:01:31;8.70;;;3.70;;
32790;SDS011;19143;59.322;14.502;2023-05-24T14:03:59;9.20;;;3.50;;
32790;SDS011;19143;59.322;14.502;2023-05-24T14:06:27;4.50;;;4.07;;
32790;SDS011;19143;59.322;14.502;2023-05-24T14:08:54;9.33;;;4.47;;
32790;SDS011;19143;59.322;14.502;2023-05-24T14:11:21;4.37;;;3.60;;
32790;SDS011;19143;59.322;14.502;2023-05-24T14:13:50;4.57;;;3.40;;
32790;SDS011;19143;59.322;14.502;2023-05-24T14:16:18;4.33;;;4.07;;
32790;SDS011;19143;59.322;14.502;2023-05-24T14:18:44;4.03;;;3.70;;
32790;SDS011;19143;59.322;14.502;2023-05-24T14:21:13;7.03;;;3.73;;
32790;SDS011;19143;59.322;14.502;2023-05-24T14:23:39;6.57;;;4.03;;
32790;SDS011;19143;59.322;14.502;2023-05-24T14:26:06;4.13;;;3.73;;
32790;SDS011;19143;59.322;14.502;2023-05-24T14:28:33;6.77;;;4.10;;
32790;SDS011;19143;59.322;14.502;2023-05-24T14:31:01;14.23;;;4.33;;
32790;SDS011;19143;59.322;14.502;2023-05-24T14:33:28;4.40;;;4.10;;
32790;SDS011;19143;59.322;14.502;2023-05-24T14:35:54;4.37;;;3.70;;
32790;SDS011;19143;59.322;14.502;2023-05-24T14:38:21;7.43;;;4.37;;